createdAt,value
2019-06-07T00:01:45.074Z,68.09
2019-06-07T00:04:21.177Z,68.81
2019-06-07T00:06:52.609Z,68.59
2019-06-07T00:09:24.751Z,68.27
2019-06-07T00:11:57.346Z,68.85
2019-06-07T00:14:29.900Z,69.02
2019-06-07T00:17:02.483Z,70.05
2019-06-07T00:19:34.741Z,70.30
2019-06-07T00:22:17.662Z,70.47
2019-06-07T00:24:41.863Z,70.14
2019-06-07T00:27:15.160Z,70.48
2019-06-07T00:29:47.525Z,70.87
2019-06-07T00:32:22.020Z,71.33
2019-06-07T00:34:53.900Z,71.05
2019-06-07T00:37:26.360Z,71.57
2019-06-07T00:40:13.887Z,71.64
2019-06-07T00:42:32.974Z,71.84
2019-06-07T00:45:06.998Z,72.16
2019-06-07T00:47:39.456Z,72.53
2019-06-07T00:50:11.715Z,72.29
2019-06-07T00:53:14.650Z,72.40
2019-06-07T00:55:20.041Z,72.45
2019-06-07T00:57:51.705Z,72.72
2019-06-07T01:00:25.580Z,72.81
2019-06-07T01:02:58.205Z,72.73
2019-06-07T01:05:31.613Z,73.11
2019-06-07T01:08:04.561Z,73.39
2019-06-07T01:10:52.827Z,73.26
2019-06-07T01:13:10.436Z,73.81
2019-06-07T01:15:47.422Z,73.89
2019-06-07T01:18:37.691Z,73.40
2019-06-07T01:20:54.206Z,74.13
2019-06-07T01:26:01.100Z,73.27
2019-06-07T01:28:33.677Z,73.61
2019-06-07T01:31:06.257Z,73.71
2019-06-07T01:33:50.921Z,73.53
2019-06-07T01:36:12.795Z,73.09
2019-06-07T01:38:45.432Z,72.51
2019-06-07T01:41:21.558Z,73.18
2019-06-07T01:43:52.130Z,73.45
2019-06-07T01:46:26.658Z,72.76
2019-06-07T01:48:59.059Z,72.86
2019-06-07T01:51:31.486Z,73.93
2019-06-07T01:54:48.577Z,73.87
2019-06-07T01:56:37.962Z,73.99
2019-06-07T01:59:10.644Z,74.39
2019-06-07T02:01:42.839Z,74.92
2019-06-07T02:04:27.328Z,75.29
2019-06-07T02:07:09.069Z,75.59
2019-06-07T02:09:41.772Z,75.62
2019-06-07T02:12:25.487Z,75.54
2019-06-07T02:14:50.915Z,74.59
2019-06-07T02:17:25.262Z,74.21
2019-06-07T02:19:57.389Z,73.89
2019-06-07T02:22:32.524Z,73.80
2019-06-07T02:25:35.283Z,74.84
2019-06-07T02:27:40.725Z,74.64
2019-06-07T02:32:48.715Z,74.47
2019-06-07T02:35:25.598Z,74.23
2019-06-07T02:37:56.397Z,73.47
2019-06-07T02:40:36.461Z,74.31
2019-06-07T02:43:02.958Z,74.03
2019-06-07T02:45:43.555Z,73.80
2019-06-07T02:48:14.570Z,74.13
2019-06-07T02:50:47.575Z,73.83
2019-06-07T02:53:19.726Z,73.13
2019-06-07T02:56:34.951Z,71.54
2019-06-07T02:58:34.509Z,71.35
2019-06-07T03:01:09.182Z,70.89
2019-06-07T03:03:39.935Z,70.93
2019-06-07T03:06:15.643Z,71.05
2019-06-07T03:08:47.888Z,70.28
2019-06-07T03:11:20.462Z,67.98
2019-06-07T03:13:52.733Z,66.39
2019-06-07T03:16:36.735Z,66.74
2019-06-07T03:19:09.972Z,66.44
2019-06-07T03:21:43.282Z,66.43
2019-06-07T03:24:15.430Z,66.08
2019-06-07T03:27:32.256Z,65.67
2019-06-07T03:29:21.939Z,64.77
2019-06-07T03:31:54.517Z,64.81
2019-06-07T03:34:29.716Z,64.49
2019-06-07T03:37:01.081Z,64.79
2019-06-07T03:39:34.339Z,64.93
2019-06-07T03:42:08.567Z,64.97
2019-06-07T03:44:41.643Z,62.98
2019-06-07T03:47:14.258Z,61.52
2019-06-07T03:49:46.754Z,55.47
2019-06-07T03:52:19.246Z,49.39
2019-06-07T03:54:51.887Z,47.75
2019-06-07T03:57:24.419Z,47.26
2019-06-07T03:59:57.269Z,49.02
2019-06-07T04:02:30.389Z,50.88
2019-06-07T04:05:02.615Z,52.63
2019-06-07T04:07:38.785Z,53.26
2019-06-07T04:10:08.906Z,52.18
2019-06-07T04:12:43.978Z,50.39
2019-06-07T04:15:15.763Z,49.38
2019-06-07T04:18:01.448Z,47.56
2019-06-07T04:20:24.170Z,44.76
2019-06-07T04:22:56.158Z,42.44
2019-06-07T04:25:29.071Z,41.53
2019-06-07T04:28:01.832Z,40.31
2019-06-07T04:30:45.307Z,38.37
2019-06-07T04:33:17.994Z,40.97
2019-06-07T04:35:50.278Z,41.47
2019-06-07T04:38:22.807Z,43.28
2019-06-07T04:40:55.257Z,44.93
2019-06-07T04:43:29.946Z,45.67
2019-06-07T04:46:02.271Z,46.12
2019-06-07T04:48:41.154Z,44.70
2019-06-07T04:51:10.804Z,42.87
2019-06-07T04:53:43.476Z,40.63
2019-06-07T04:56:15.733Z,39.03
2019-06-07T04:58:48.519Z,37.46
2019-06-07T05:01:27.227Z,36.58
2019-06-07T05:03:55.444Z,36.04
2019-06-07T05:06:27.892Z,33.98
2019-06-07T05:09:01.429Z,33.59
2019-06-07T05:11:36.373Z,33.50
2019-06-07T05:14:10.361Z,32.89
2019-06-07T05:16:44.261Z,32.82
2019-06-07T05:19:17.112Z,31.17
2019-06-07T05:22:03.488Z,29.95
2019-06-07T05:24:25.118Z,29.97
2019-06-07T05:26:57.324Z,29.75
2019-06-07T05:29:30.812Z,29.12
